createdAt,value
2022-07-26T00:00:44.701Z,9.745566
2022-07-26T00:01:44.793Z,9.745530
2022-07-26T00:02:47.750Z,9.745479
2022-07-26T00:03:44.649Z,9.745527
2022-07-26T00:04:44.642Z,9.745794
2022-07-26T00:05:44.639Z,9.745585
2022-07-26T00:06:44.657Z,9.745532
2022-07-26T00:07:44.624Z,9.745428
2022-07-26T00:08:44.620Z,9.745337
2022-07-26T00:09:48.210Z,9.745515
2022-07-26T00:10:45.602Z,9.745571
2022-07-26T00:11:44.624Z,9.745489
2022-07-26T00:12:44.591Z,9.745667
2022-07-26T00:13:44.583Z,9.745590
2022-07-26T00:14:44.579Z,9.745552
2022-07-26T00:15:44.557Z,9.745533
2022-07-26T00:16:44.616Z,9.745497
2022-07-26T00:17:44.543Z,9.745467
2022-07-26T00:18:44.539Z,9.745522
2022-07-26T00:19:44.534Z,9.745436
2022-07-26T00:20:44.529Z,9.745795
2022-07-26T00:21:44.541Z,9.745543
2022-07-26T00:22:44.507Z,9.745605
2022-07-26T00:23:44.502Z,9.745575
2022-07-26T00:24:44.491Z,9.745664
2022-07-26T00:25:44.483Z,9.745384
2022-07-26T00:26:44.503Z,9.745627
2022-07-26T00:27:44.466Z,9.745643
2022-07-26T00:28:44.461Z,9.745470
2022-07-26T00:29:44.451Z,9.745580
2022-07-26T00:30:44.448Z,9.745736
2022-07-26T00:31:44.516Z,9.745339
2022-07-26T00:32:44.427Z,9.745735
2022-07-26T00:33:44.423Z,9.745733
2022-07-26T00:34:44.415Z,9.745306
2022-07-26T00:35:44.399Z,9.745667
2022-07-26T00:36:44.422Z,9.745806
2022-07-26T00:37:44.388Z,9.745575
2022-07-26T00:38:44.380Z,9.745143
2022-07-26T00:39:44.371Z,9.745198
2022-07-26T00:40:44.362Z,9.745576
2022-07-26T00:41:44.383Z,9.745864
2022-07-26T00:42:44.349Z,9.746169
2022-07-26T00:43:44.340Z,9.745574
2022-07-26T00:44:44.331Z,9.745728
2022-07-26T00:45:44.404Z,9.745407
2022-07-26T00:46:44.341Z,9.745516
2022-07-26T00:47:44.313Z,9.745407
2022-07-26T00:48:44.339Z,9.745296
2022-07-26T00:49:44.290Z,9.745132
2022-07-26T00:50:44.288Z,9.745363
2022-07-26T00:51:46.385Z,9.745234
2022-07-26T00:52:44.273Z,9.745346
2022-07-26T00:53:44.267Z,9.745132
2022-07-26T00:54:44.255Z,9.745257
2022-07-26T00:55:44.252Z,9.745311
2022-07-26T00:56:44.263Z,9.745308
2022-07-26T00:57:44.233Z,9.745216
2022-07-26T00:58:44.516Z,9.744985
2022-07-26T00:59:44.224Z,9.745271
2022-07-26T01:00:44.206Z,9.745169
2022-07-26T01:01:44.353Z,9.745158
2022-07-26T01:02:44.317Z,9.745369
2022-07-26T01:03:44.190Z,9.745296
2022-07-26T01:04:44.185Z,9.745078
2022-07-26T01:05:44.170Z,9.745135
2022-07-26T01:06:44.186Z,9.745171
2022-07-26T01:07:44.152Z,9.745298
2022-07-26T01:08:44.152Z,9.745272
2022-07-26T01:09:44.141Z,9.745300
2022-07-26T01:10:44.132Z,9.745598
2022-07-26T01:11:44.156Z,9.745448
2022-07-26T01:12:44.115Z,9.745368
2022-07-26T01:13:44.104Z,9.745484
2022-07-26T01:14:44.101Z,9.745335
2022-07-26T01:15:44.153Z,9.745413
2022-07-26T01:16:44.110Z,9.745306
2022-07-26T01:17:44.070Z,9.745422
2022-07-26T01:18:44.075Z,9.744808
2022-07-26T01:19:44.076Z,9.745059
2022-07-26T01:20:44.046Z,9.744991
2022-07-26T01:21:44.065Z,9.745420
2022-07-26T01:22:44.033Z,9.745539
2022-07-26T01:23:44.024Z,9.745751
2022-07-26T01:24:44.025Z,9.745848
2022-07-26T01:25:46.059Z,9.745701
2022-07-26T01:26:44.030Z,9.745669
2022-07-26T01:27:44.002Z,9.745670
2022-07-26T01:28:43.988Z,9.745510
2022-07-26T01:29:43.977Z,9.745488
2022-07-26T01:30:43.970Z,9.745591
2022-07-26T01:31:44.020Z,9.745497
2022-07-26T01:32:43.949Z,9.745589
2022-07-26T01:33:43.949Z,9.745545
2022-07-26T01:34:43.935Z,9.745633
2022-07-26T01:35:43.932Z,9.745669
2022-07-26T01:36:43.940Z,9.745611
2022-07-26T01:37:43.914Z,9.745693
2022-07-26T01:38:43.898Z,9.745662
2022-07-26T01:39:43.902Z,9.745317
2022-07-26T01:40:43.883Z,9.745276
2022-07-26T01:41:43.903Z,9.745348
2022-07-26T01:42:43.871Z,9.745569
2022-07-26T01:43:43.866Z,9.745540
2022-07-26T01:44:43.861Z,9.745785
2022-07-26T01:45:43.900Z,9.745844
2022-07-26T01:46:43.894Z,9.745611
2022-07-26T01:47:43.839Z,9.745590
2022-07-26T01:48:43.862Z,9.745676
2022-07-26T01:49:43.814Z,9.745517
2022-07-26T01:50:43.807Z,9.745585
2022-07-26T01:51:43.830Z,9.745772
2022-07-26T01:52:43.791Z,9.745675
2022-07-26T01:53:43.786Z,9.745601
2022-07-26T01:54:43.779Z,9.745664
2022-07-26T01:55:43.769Z,9.745634
2022-07-26T01:56:43.790Z,9.745657
2022-07-26T01:57:43.760Z,9.745766
2022-07-26T01:58:43.749Z,9.745412
2022-07-26T01:59:43.752Z,9.745679
2022-07-26T02:00:43.743Z,9.745438
2022-07-26T02:01:43.784Z,9.745706
2022-07-26T02:02:43.787Z,9.745520
2022-07-26T02:03:43.713Z,9.745473
2022-07-26T02:04:43.702Z,9.745239
2022-07-26T02:05:43.692Z,9.745512
2022-07-26T02:06:43.725Z,9.745093
2022-07-26T02:07:44.500Z,9.745391
2022-07-26T02:08:43.666Z,9.745433
2022-07-26T02:09:43.661Z,9.745443
2022-07-26T02:10:43.653Z,9.745255
2022-07-26T02:11:43.670Z,9.745458
2022-07-26T02:12:43.642Z,9.745554
2022-07-26T02:13:43.634Z,9.745418
2022-07-26T02:14:43.631Z,9.745443
2022-07-26T02:15:43.651Z,9.745511
2022-07-26T02:16:43.642Z,9.745116
2022-07-26T02:17:43.603Z,9.745426
2022-07-26T02:18:43.597Z,9.745436
2022-07-26T02:19:43.583Z,9.745395
2022-07-26T02:20:43.573Z,9.745523
2022-07-26T02:21:43.605Z,9.745459
2022-07-26T02:22:43.565Z,9.745670
2022-07-26T02:23:43.551Z,9.745696
2022-07-26T02:24:43.549Z,9.745609
2022-07-26T02:25:43.544Z,9.745671
2022-07-26T02:26:43.535Z,9.745650
2022-07-26T02:27:43.553Z,9.745500
2022-07-26T02:28:43.516Z,9.745544
2022-07-26T02:29:43.511Z,9.745601
2022-07-26T02:30:43.566Z,9.745535
2022-07-26T02:31:48.357Z,9.745610
2022-07-26T02:32:44.511Z,9.745536
2022-07-26T02:33:43.484Z,9.745563
2022-07-26T02:34:43.474Z,9.745644
2022-07-26T02:35:43.464Z,9.745688
2022-07-26T02:36:43.453Z,9.745542
2022-07-26T02:37:43.863Z,9.745529
2022-07-26T02:38:43.439Z,9.745523
2022-07-26T02:39:43.427Z,9.745562
2022-07-26T02:40:43.434Z,9.745752
2022-07-26T02:41:43.419Z,9.745790
2022-07-26T02:42:43.435Z,9.745834
2022-07-26T02:43:43.410Z,9.745667
2022-07-26T02:44:43.394Z,9.745702
2022-07-26T02:45:43.392Z,9.745706
2022-07-26T02:46:43.431Z,9.745427
2022-07-26T02:47:43.399Z,9.745564
2022-07-26T02:48:43.379Z,9.745473
2022-07-26T02:49:43.354Z,9.745555
2022-07-26T02:50:43.351Z,9.745719
2022-07-26T02:51:43.340Z,9.745798
2022-07-26T02:52:43.362Z,9.745816
2022-07-26T02:53:43.694Z,9.745680
2022-07-26T02:54:43.308Z,9.745576
2022-07-26T02:55:43.305Z,9.745516
2022-07-26T02:56:43.303Z,9.745566
2022-07-26T02:57:46.020Z,9.745366
2022-07-26T02:58:43.283Z,9.745575
2022-07-26T02:59:43.278Z,9.745269
2022-07-26T03:00:43.263Z,9.745996
2022-07-26T03:01:43.326Z,9.745853
2022-07-26T03:02:43.381Z,9.745614
2022-07-26T03:03:48.588Z,9.745519
2022-07-26T03:04:45.228Z,9.745564
2022-07-26T03:05:43.227Z,9.745785
2022-07-26T03:06:43.217Z,9.745742
2022-07-26T03:07:43.237Z,9.745541
2022-07-26T03:08:43.197Z,9.745410
2022-07-26T03:09:43.187Z,9.745539
2022-07-26T03:10:43.182Z,9.745760
2022-07-26T03:11:43.175Z,9.745709
2022-07-26T03:12:43.194Z,9.745689
2022-07-26T03:13:43.174Z,9.745468
2022-07-26T03:14:43.156Z,9.745463
2022-07-26T03:15:43.190Z,9.745537
2022-07-26T03:16:43.139Z,9.745544
2022-07-26T03:17:43.153Z,9.745418
2022-07-26T03:18:43.129Z,9.745588
2022-07-26T03:19:43.115Z,9.745564
2022-07-26T03:20:43.108Z,9.745640
2022-07-26T03:21:43.101Z,9.745392
2022-07-26T03:22:43.113Z,9.745577
2022-07-26T03:23:43.080Z,9.745787
2022-07-26T03:24:43.077Z,9.745415
2022-07-26T03:25:43.069Z,9.745428
2022-07-26T03:26:43.061Z,9.745675
2022-07-26T03:27:43.079Z,9.745548
2022-07-26T03:28:43.048Z,9.745428
2022-07-26T03:29:43.039Z,9.745482
2022-07-26T03:30:43.058Z,9.745726
2022-07-26T03:31:43.024Z,9.745518
2022-07-26T03:32:43.050Z,9.745458
2022-07-26T03:33:43.011Z,9.745549
2022-07-26T03:34:43.006Z,9.745533
2022-07-26T03:35:42.998Z,9.745539
2022-07-26T03:36:42.987Z,9.745668
2022-07-26T03:37:45.100Z,9.745779
2022-07-26T03:38:42.968Z,9.745510
2022-07-26T03:39:42.961Z,9.745679
2022-07-26T03:40:42.957Z,9.745807
2022-07-26T03:41:42.946Z,9.745678
2022-07-26T03:42:42.969Z,9.745828
2022-07-26T03:43:42.927Z,9.745836
2022-07-26T03:44:42.917Z,9.745755
2022-07-26T03:45:42.937Z,9.745724
2022-07-26T03:46:42.944Z,9.745701
2022-07-26T03:47:42.923Z,9.745757
2022-07-26T03:48:42.946Z,9.745694
2022-07-26T03:49:42.887Z,9.745541
2022-07-26T03:50:42.877Z,9.745580
2022-07-26T03:51:42.864Z,9.745709
2022-07-26T03:52:42.881Z,9.745475
2022-07-26T03:53:42.856Z,9.745518
2022-07-26T03:54:42.842Z,9.745538
2022-07-26T03:55:42.846Z,9.745476
2022-07-26T03:56:42.831Z,9.745502
2022-07-26T03:57:42.847Z,9.745458
2022-07-26T03:58:42.817Z,9.745420
2022-07-26T03:59:42.810Z,9.745561
2022-07-26T04:00:42.804Z,9.745464
2022-07-26T04:01:42.835Z,9.745564
2022-07-26T04:02:42.914Z,9.745700
2022-07-26T04:03:47.536Z,9.745605
2022-07-26T04:04:44.770Z,9.745489
2022-07-26T04:05:49.004Z,9.745446
2022-07-26T04:06:43.757Z,9.745543
2022-07-26T04:07:42.770Z,9.745466
2022-07-26T04:08:42.744Z,9.745666
2022-07-26T04:09:42.730Z,9.745626
2022-07-26T04:10:42.719Z,9.745599
2022-07-26T04:11:42.715Z,9.745792
2022-07-26T04:12:42.736Z,9.745934
2022-07-26T04:13:42.722Z,9.745585
2022-07-26T04:14:42.691Z,9.745635
2022-07-26T04:15:42.685Z,9.745565
2022-07-26T04:16:43.814Z,9.745558
2022-07-26T04:17:43.697Z,9.745683
2022-07-26T04:18:42.719Z,9.745792
2022-07-26T04:19:42.651Z,9.745886
2022-07-26T04:20:42.642Z,9.745750
2022-07-26T04:21:42.637Z,9.745787
2022-07-26T04:22:42.656Z,9.745501
2022-07-26T04:23:45.339Z,9.745343
2022-07-26T04:24:43.612Z,9.745523
2022-07-26T04:25:42.604Z,9.745608
2022-07-26T04:26:42.600Z,9.745727
2022-07-26T04:27:42.619Z,9.745676
2022-07-26T04:28:42.576Z,9.745433
2022-07-26T04:29:43.571Z,9.745618
2022-07-26T04:30:42.660Z,9.745704
2022-07-26T04:31:42.556Z,9.745705
2022-07-26T04:32:42.582Z,9.745557
2022-07-26T04:33:42.548Z,9.745599
2022-07-26T04:34:42.541Z,9.745476
2022-07-26T04:35:42.535Z,9.745783
2022-07-26T04:36:42.521Z,9.745683
2022-07-26T04:37:42.545Z,9.745561
2022-07-26T04:38:42.511Z,9.745723
2022-07-26T04:39:42.503Z,9.745539
2022-07-26T04:40:42.492Z,9.745599
2022-07-26T04:41:42.483Z,9.745674
2022-07-26T04:42:42.477Z,9.745596
2022-07-26T04:43:42.493Z,9.745591
2022-07-26T04:44:42.464Z,9.745690
2022-07-26T04:45:42.560Z,9.745566
2022-07-26T04:46:45.933Z,9.745593
2022-07-26T04:47:42.468Z,9.745522
2022-07-26T04:48:42.491Z,9.745585
2022-07-26T04:49:42.421Z,9.745595
2022-07-26T04:50:42.408Z,9.745585
2022-07-26T04:51:42.421Z,9.745651
2022-07-26T04:52:42.404Z,9.745640
2022-07-26T04:53:42.414Z,9.745544
2022-07-26T04:54:42.381Z,9.745503
2022-07-26T04:55:42.384Z,9.745514
2022-07-26T04:56:42.365Z,9.745488
2022-07-26T04:57:42.362Z,9.745586
2022-07-26T04:58:42.376Z,9.745578
2022-07-26T04:59:42.347Z,9.745476
2022-07-26T05:01:08.493Z,9.745551
2022-07-26T05:01:44.396Z,9.745636
2022-07-26T05:02:42.334Z,9.745560
2022-07-26T05:03:42.344Z,9.745670
2022-07-26T05:04:42.307Z,9.745573
2022-07-26T05:05:42.296Z,9.745613
2022-07-26T05:06:42.297Z,9.745709
2022-07-26T05:07:42.294Z,9.745600
2022-07-26T05:08:42.300Z,9.745639
2022-07-26T05:09:42.272Z,9.745846
2022-07-26T05:10:44.908Z,9.745574
2022-07-26T05:11:42.270Z,9.745690
2022-07-26T05:12:42.249Z,9.745744
2022-07-26T05:13:42.267Z,9.745549
2022-07-26T05:14:42.235Z,9.745632
2022-07-26T05:15:42.936Z,9.745725
2022-07-26T05:16:44.382Z,9.745550
2022-07-26T05:17:42.210Z,9.745632
2022-07-26T05:18:48.890Z,9.745584
2022-07-26T05:19:48.870Z,9.745670
2022-07-26T05:20:44.223Z,9.745604
2022-07-26T05:21:42.187Z,9.745757
2022-07-26T05:22:42.202Z,9.745650
2022-07-26T05:23:42.197Z,9.745720
2022-07-26T05:24:42.163Z,9.745556
2022-07-26T05:25:42.194Z,9.745615
2022-07-26T05:26:42.149Z,9.745892
2022-07-26T05:27:42.145Z,9.745560
2022-07-26T05:28:42.158Z,9.745516
2022-07-26T05:29:42.128Z,9.745528
2022-07-26T05:30:42.165Z,9.745589
2022-07-26T05:31:42.120Z,9.745553
2022-07-26T05:32:42.118Z,9.745849
2022-07-26T05:33:42.136Z,9.745692
2022-07-26T05:34:42.101Z,9.745688
2022-07-26T05:35:42.097Z,9.745476
2022-07-26T05:36:42.088Z,9.745430
2022-07-26T05:37:42.083Z,9.745521
2022-07-26T05:38:42.117Z,9.745409
2022-07-26T05:39:42.071Z,9.745430
2022-07-26T05:40:44.883Z,9.745442
2022-07-26T05:41:43.052Z,9.745328
2022-07-26T05:42:42.052Z,9.745399
2022-07-26T05:43:42.298Z,9.745338
2022-07-26T05:44:43.034Z,9.745363
2022-07-26T05:45:42.056Z,9.745658
2022-07-26T05:46:42.026Z,9.745796
2022-07-26T05:47:42.051Z,9.745427
2022-07-26T05:48:42.100Z,9.745451
2022-07-26T05:49:42.007Z,9.745448
2022-07-26T05:50:42.009Z,9.745578
2022-07-26T05:51:42.000Z,9.745312
2022-07-26T05:52:41.998Z,9.745395
2022-07-26T05:53:42.009Z,9.745375
2022-07-26T05:54:41.992Z,9.745489
2022-07-26T05:55:41.968Z,9.745479
2022-07-26T05:56:41.975Z,9.745509
2022-07-26T05:57:41.978Z,9.745344
2022-07-26T05:58:41.985Z,9.745475
2022-07-26T05:59:41.957Z,9.745509
2022-07-26T06:00:45.389Z,9.745508
2022-07-26T06:01:42.934Z,9.745365
2022-07-26T06:02:42.060Z,9.745361
2022-07-26T06:03:41.953Z,9.745582
2022-07-26T06:04:42.073Z,9.745542
2022-07-26T06:05:41.917Z,9.745552
2022-07-26T06:06:41.911Z,9.745394
2022-07-26T06:07:41.903Z,9.745277
2022-07-26T06:08:41.925Z,9.745434
2022-07-26T06:09:41.892Z,9.745518
2022-07-26T06:10:41.885Z,9.745165
2022-07-26T06:11:41.880Z,9.745051
2022-07-26T06:12:41.874Z,9.745458
2022-07-26T06:13:41.892Z,9.745272
2022-07-26T06:14:41.865Z,9.745462
2022-07-26T06:15:41.852Z,9.745658
2022-07-26T06:16:41.919Z,9.745544
2022-07-26T06:17:41.847Z,9.745562
2022-07-26T06:18:41.864Z,9.745626
2022-07-26T06:19:47.073Z,9.745667
2022-07-26T06:20:43.836Z,9.745667
2022-07-26T06:21:41.842Z,9.745727
2022-07-26T06:22:41.816Z,9.745672
2022-07-26T06:23:41.832Z,9.745679
2022-07-26T06:24:41.815Z,9.745776
2022-07-26T06:25:41.803Z,9.745655
2022-07-26T06:26:41.793Z,9.745629
2022-07-26T06:27:41.785Z,9.745730
2022-07-26T06:28:41.815Z,9.745772
2022-07-26T06:29:41.805Z,9.745562
2022-07-26T06:30:41.777Z,9.745705
2022-07-26T06:31:41.827Z,9.745844
2022-07-26T06:32:41.765Z,9.745832
2022-07-26T06:33:41.788Z,9.745888
2022-07-26T06:34:41.742Z,9.746186
2022-07-26T06:35:41.746Z,9.745962
2022-07-26T06:36:41.739Z,9.745613
2022-07-26T06:37:41.729Z,9.745805
2022-07-26T06:38:41.754Z,9.745557
2022-07-26T06:39:41.734Z,9.745630
2022-07-26T06:40:41.726Z,9.745759
2022-07-26T06:41:41.712Z,9.745897
2022-07-26T06:42:41.704Z,9.745742
2022-07-26T06:43:41.729Z,9.745357
2022-07-26T06:44:41.694Z,9.745421
2022-07-26T06:45:41.701Z,9.745638
2022-07-26T06:46:41.685Z,9.745748
2022-07-26T06:47:41.676Z,9.745732
2022-07-26T06:48:41.713Z,9.745758
2022-07-26T06:49:42.663Z,9.745935
2022-07-26T06:50:41.662Z,9.746277
2022-07-26T06:51:41.655Z,9.745575
2022-07-26T06:52:41.657Z,9.746009
2022-07-26T06:53:42.676Z,9.746101
2022-07-26T06:54:41.636Z,9.746215
2022-07-26T06:55:41.629Z,9.745556
2022-07-26T06:56:41.628Z,9.745639
2022-07-26T06:57:45.059Z,9.745693
2022-07-26T06:58:42.625Z,9.745726
2022-07-26T06:59:41.634Z,9.745880
2022-07-26T07:00:41.680Z,9.745784
2022-07-26T07:01:57.714Z,9.745820
2022-07-26T07:02:42.597Z,9.745831
2022-07-26T07:03:41.589Z,9.745831
2022-07-26T07:04:41.651Z,9.745831
2022-07-26T07:05:44.190Z,9.746006
2022-07-26T07:06:42.570Z,9.746142
2022-07-26T07:07:42.218Z,9.746142
2022-07-26T07:08:41.557Z,9.746142
2022-07-26T07:09:41.576Z,9.745877
2022-07-26T07:10:41.547Z,9.745486
2022-07-26T07:11:41.548Z,9.745486
2022-07-26T07:12:41.537Z,9.745499
2022-07-26T07:13:41.530Z,9.745605
2022-07-26T07:14:41.550Z,9.745763
2022-07-26T07:15:41.519Z,9.745526
2022-07-26T07:16:41.567Z,9.745664
2022-07-26T07:17:41.508Z,9.745625
2022-07-26T07:18:41.499Z,9.745475
2022-07-26T07:19:41.536Z,9.745409
2022-07-26T07:20:41.485Z,9.745687
2022-07-26T07:21:41.485Z,9.745115
2022-07-26T07:22:41.471Z,9.745400
2022-07-26T07:23:42.472Z,9.745493
2022-07-26T07:24:41.496Z,9.745631
2022-07-26T07:25:41.469Z,9.745603
2022-07-26T07:26:41.453Z,9.745574
2022-07-26T07:27:41.448Z,9.745434
2022-07-26T07:28:41.454Z,9.745313
2022-07-26T07:29:42.137Z,9.745493
2022-07-26T07:30:41.433Z,9.745755
2022-07-26T07:31:48.803Z,9.745535
2022-07-26T07:32:42.472Z,9.745272
2022-07-26T07:33:52.809Z,9.745393
2022-07-26T07:34:42.434Z,9.745552
2022-07-26T07:35:41.405Z,9.745488
2022-07-26T07:36:41.396Z,9.745278
2022-07-26T07:37:53.418Z,9.745097
2022-07-26T07:38:42.895Z,9.745444
2022-07-26T07:39:42.414Z,9.745482
2022-07-26T07:40:41.382Z,9.745383
2022-07-26T07:41:41.373Z,9.745420
2022-07-26T07:42:41.369Z,9.745606
2022-07-26T07:43:41.362Z,9.745569
2022-07-26T07:44:41.383Z,9.745141
2022-07-26T07:45:41.381Z,9.745497
2022-07-26T07:46:41.420Z,9.745473
2022-07-26T07:47:41.351Z,9.744979
2022-07-26T07:48:46.976Z,9.744672
2022-07-26T07:49:43.358Z,9.744532
2022-07-26T07:50:41.322Z,9.744815
2022-07-26T07:51:41.325Z,9.744879
2022-07-26T07:52:41.319Z,9.744897
2022-07-26T07:53:41.316Z,9.745283
2022-07-26T07:54:42.175Z,9.745522
2022-07-26T07:55:43.653Z,9.745565
2022-07-26T07:56:42.315Z,9.745502
2022-07-26T07:57:41.312Z,9.745461
2022-07-26T07:58:41.279Z,9.745610
2022-07-26T07:59:42.309Z,9.745455
2022-07-26T08:00:41.373Z,9.745465
2022-07-26T08:01:41.369Z,9.745407
2022-07-26T08:02:41.261Z,9.745255
2022-07-26T08:03:41.350Z,9.745743
2022-07-26T08:04:41.339Z,9.745447
2022-07-26T08:05:41.243Z,9.745494
2022-07-26T08:06:41.366Z,9.745507
2022-07-26T08:07:41.258Z,9.745556
2022-07-26T08:08:41.237Z,9.745612
2022-07-26T08:09:43.094Z,9.745551
2022-07-26T08:10:43.690Z,9.745594
2022-07-26T08:11:43.204Z,9.745818
2022-07-26T08:12:42.201Z,9.745767
2022-07-26T08:13:45.780Z,9.745556
2022-07-26T08:14:43.233Z,9.745497
2022-07-26T08:15:41.186Z,9.745564
2022-07-26T08:16:41.297Z,9.745633
2022-07-26T08:17:41.765Z,9.745585
2022-07-26T08:18:55.681Z,9.745501
2022-07-26T08:19:43.190Z,9.745724
2022-07-26T08:20:41.153Z,9.745518
2022-07-26T08:21:41.148Z,9.745574
2022-07-26T08:22:41.146Z,9.745621
2022-07-26T08:23:41.143Z,9.745456
2022-07-26T08:24:41.158Z,9.745387
2022-07-26T08:25:55.117Z,9.745438
2022-07-26T08:26:43.116Z,9.745363
2022-07-26T08:27:41.374Z,9.745652
2022-07-26T08:28:48.707Z,9.745750
2022-07-26T08:29:43.121Z,9.745624
2022-07-26T08:30:41.093Z,9.745597
2022-07-26T08:31:41.128Z,9.745607
2022-07-26T08:32:41.082Z,9.745646
2022-07-26T08:33:45.733Z,9.745430
2022-07-26T08:34:42.096Z,9.745607
2022-07-26T08:35:41.061Z,9.745545
2022-07-26T08:36:54.783Z,9.745741
2022-07-26T08:37:43.052Z,9.745749
2022-07-26T08:38:41.062Z,9.745626
2022-07-26T08:39:41.040Z,9.745615
2022-07-26T08:40:41.055Z,9.745641
2022-07-26T08:41:41.028Z,9.745575
2022-07-26T08:42:41.016Z,9.745564
2022-07-26T08:43:51.234Z,9.745532
2022-07-26T08:44:42.006Z,9.745540
2022-07-26T08:45:41.019Z,9.745543
2022-07-26T08:46:41.045Z,9.745582
2022-07-26T08:48:00.698Z,9.745419
2022-07-26T08:48:43.027Z,9.745521
2022-07-26T08:49:40.970Z,9.745593
2022-07-26T08:50:41.127Z,9.745647
2022-07-26T08:51:40.997Z,9.745605
2022-07-26T08:52:41.002Z,9.745510
2022-07-26T08:53:40.950Z,9.745398
2022-07-26T08:54:40.948Z,9.745721
2022-07-26T08:56:08.221Z,9.745635
2022-07-26T08:56:42.934Z,9.745483
2022-07-26T08:57:40.929Z,9.745481
2022-07-26T08:58:41.007Z,9.745601
2022-07-26T08:59:40.912Z,9.745469
2022-07-26T09:00:41.001Z,9.745412
2022-07-26T09:01:40.904Z,9.745301
2022-07-26T09:02:40.890Z,9.745154
2022-07-26T09:03:40.945Z,9.745397
2022-07-26T09:04:44.474Z,9.745538
2022-07-26T09:05:41.896Z,9.745343
2022-07-26T09:06:40.869Z,9.745444
2022-07-26T09:07:40.852Z,9.745555
2022-07-26T09:08:40.860Z,9.745481
2022-07-26T09:09:40.843Z,9.745498
2022-07-26T09:10:40.852Z,9.745408
2022-07-26T09:11:40.830Z,9.745439
2022-07-26T09:12:40.824Z,9.745546
2022-07-26T09:13:40.807Z,9.745461
2022-07-26T09:14:40.804Z,9.745657
2022-07-26T09:15:40.817Z,9.745723
2022-07-26T09:16:40.829Z,9.745592
2022-07-26T09:17:40.788Z,9.745217
2022-07-26T09:18:40.788Z,9.745428
2022-07-26T09:19:40.763Z,9.745482
2022-07-26T09:20:40.784Z,9.745632
2022-07-26T09:21:40.757Z,9.745760
2022-07-26T09:22:40.751Z,9.745639
2022-07-26T09:23:40.745Z,9.745453
2022-07-26T09:24:40.732Z,9.745867
2022-07-26T09:25:40.754Z,9.745791
2022-07-26T09:26:40.730Z,9.745513
2022-07-26T09:27:40.718Z,9.745419
2022-07-26T09:28:44.969Z,9.745266
2022-07-26T09:29:40.710Z,9.745282
2022-07-26T09:30:40.721Z,9.745031
2022-07-26T09:31:40.731Z,9.745428
2022-07-26T09:32:40.678Z,9.745636
2022-07-26T09:33:40.667Z,9.745587
2022-07-26T09:34:51.870Z,9.745599
2022-07-26T09:35:51.500Z,9.745610
2022-07-26T09:36:42.646Z,9.745551
2022-07-26T09:37:40.641Z,9.745549
2022-07-26T09:38:40.636Z,9.745597
2022-07-26T09:39:40.628Z,9.745651
2022-07-26T09:40:40.653Z,9.745694
2022-07-26T09:41:40.617Z,9.745664
2022-07-26T09:42:40.608Z,9.745585
2022-07-26T09:43:40.597Z,9.745583
2022-07-26T09:44:40.954Z,9.745528
2022-07-26T09:45:41.613Z,9.745556
2022-07-26T09:46:40.673Z,9.745522
2022-07-26T09:47:40.578Z,9.745571
2022-07-26T09:49:08.066Z,9.745620
2022-07-26T09:49:42.598Z,9.745625
2022-07-26T09:50:40.587Z,9.745595
2022-07-26T09:51:40.556Z,9.745525
2022-07-26T09:52:40.544Z,9.745560
2022-07-26T09:53:40.539Z,9.745426
2022-07-26T09:54:40.539Z,9.745358
2022-07-26T09:55:44.927Z,9.745620
2022-07-26T09:56:41.509Z,9.745515
2022-07-26T09:57:40.502Z,9.745679
2022-07-26T09:58:40.492Z,9.745907
2022-07-26T09:59:40.491Z,9.745802
2022-07-26T10:00:40.506Z,9.745689
2022-07-26T10:01:40.521Z,9.745825
2022-07-26T10:02:40.521Z,9.745803
2022-07-26T10:03:40.452Z,9.745810
2022-07-26T10:04:41.453Z,9.745702
2022-07-26T10:05:40.446Z,9.745732
2022-07-26T10:06:40.985Z,9.745648
2022-07-26T10:07:40.430Z,9.745395
2022-07-26T10:08:40.424Z,9.745280
2022-07-26T10:09:40.417Z,9.745289
2022-07-26T10:10:40.407Z,9.745440
2022-07-26T10:11:40.427Z,9.745562
2022-07-26T10:12:40.394Z,9.745400
2022-07-26T10:13:40.384Z,9.745289
2022-07-26T10:14:40.384Z,9.745368
2022-07-26T10:15:40.458Z,9.745362
2022-07-26T10:16:40.383Z,9.745651
2022-07-26T10:17:40.354Z,9.745700
2022-07-26T10:18:40.657Z,9.745895
2022-07-26T10:19:45.541Z,9.745762
2022-07-26T10:20:42.327Z,9.745631
2022-07-26T10:21:40.352Z,9.745470
2022-07-26T10:22:40.325Z,9.745558
2022-07-26T10:23:40.316Z,9.746172
2022-07-26T10:24:40.309Z,9.745446
2022-07-26T10:25:40.294Z,9.745339
2022-07-26T10:26:40.316Z,9.745420
2022-07-26T10:27:40.302Z,9.745186
2022-07-26T10:28:40.291Z,9.745154
2022-07-26T10:29:40.270Z,9.745402
2022-07-26T10:30:40.266Z,9.745444
2022-07-26T10:31:40.365Z,9.744945
2022-07-26T10:32:40.241Z,9.745246
2022-07-26T10:33:40.238Z,9.745515
2022-07-26T10:34:40.228Z,9.745140
2022-07-26T10:35:40.228Z,9.745285
2022-07-26T10:36:40.240Z,9.745360
2022-07-26T10:37:40.207Z,9.745356
2022-07-26T10:38:40.201Z,9.745359
2022-07-26T10:39:40.187Z,9.745472
2022-07-26T10:40:40.189Z,9.745502
2022-07-26T10:41:40.207Z,9.745505
2022-07-26T10:42:40.171Z,9.745522
2022-07-26T10:43:41.767Z,9.745435
2022-07-26T10:44:41.157Z,9.745389
2022-07-26T10:45:40.146Z,9.745330
2022-07-26T10:46:40.205Z,9.745212
2022-07-26T10:47:40.127Z,9.745334
2022-07-26T10:48:40.250Z,9.745512
2022-07-26T10:49:40.119Z,9.745645
2022-07-26T10:50:40.103Z,9.745340
2022-07-26T10:51:40.149Z,9.745522
2022-07-26T10:52:40.092Z,9.745331
2022-07-26T10:53:40.086Z,9.745442
2022-07-26T10:54:40.086Z,9.745696
2022-07-26T10:55:40.078Z,9.745618
2022-07-26T10:56:40.095Z,9.745258
2022-07-26T10:57:40.056Z,9.745382
2022-07-26T10:58:40.051Z,9.745523
2022-07-26T10:59:55.423Z,9.745432
2022-07-26T11:00:42.033Z,9.745582
2022-07-26T11:01:40.117Z,9.745686
2022-07-26T11:02:40.101Z,9.745481
2022-07-26T11:03:40.012Z,9.745431
2022-07-26T11:04:40.005Z,9.745377
2022-07-26T11:05:39.992Z,9.745449
2022-07-26T11:06:40.027Z,9.745345
2022-07-26T11:07:39.981Z,9.745504
2022-07-26T11:08:42.416Z,9.745579
2022-07-26T11:09:40.977Z,9.745482
2022-07-26T11:10:39.965Z,9.745593
2022-07-26T11:11:39.979Z,9.745545
2022-07-26T11:12:40.941Z,9.745413
2022-07-26T11:13:39.931Z,9.745439
2022-07-26T11:14:43.808Z,9.745570
2022-07-26T11:15:41.962Z,9.745515
2022-07-26T11:16:39.965Z,9.745555
2022-07-26T11:17:39.919Z,9.745047
2022-07-26T11:18:39.904Z,9.745054
2022-07-26T11:19:39.889Z,9.745219
2022-07-26T11:20:39.883Z,9.745466
2022-07-26T11:21:39.905Z,9.745415
2022-07-26T11:22:39.865Z,9.745440
2022-07-26T11:23:39.866Z,9.745523
2022-07-26T11:24:39.860Z,9.745642
2022-07-26T11:25:39.841Z,9.745508
2022-07-26T11:26:39.872Z,9.745440
2022-07-26T11:27:39.832Z,9.745440
2022-07-26T11:28:39.821Z,9.745269
2022-07-26T11:29:41.183Z,9.745083
2022-07-26T11:30:39.906Z,9.744831
2022-07-26T11:31:49.601Z,9.744921
2022-07-26T11:32:40.895Z,9.745302
2022-07-26T11:33:39.779Z,9.745093
2022-07-26T11:34:39.768Z,9.745275
2022-07-26T11:35:39.766Z,9.745338
2022-07-26T11:36:39.759Z,9.745398
2022-07-26T11:37:39.829Z,9.745222
2022-07-26T11:38:39.744Z,9.743984
2022-07-26T11:39:39.739Z,9.744508
2022-07-26T11:40:39.732Z,9.745133
2022-07-26T11:41:39.710Z,9.745153
2022-07-26T11:42:40.746Z,9.745317
2022-07-26T11:43:39.720Z,9.745379
2022-07-26T11:44:39.708Z,9.745365